Fannettsburg, Pennsylvania
Current Conditions -  °F | °C
As of 4:53 AM on Friday 28 Nov 2014 (Local Time) from KHGR Reporting Station
Broken Clouds Broken Clouds  
Wind Chill: 25°   Ceiling: 4800
Heat Index: 32°   Visibility: 10mi
Dew Point: 21°   Wind: 8mph
Humidity: 64%   Direction: 270°W
Pressure: 30.19"   Gusts: NA
Location:  40.07°N, 77.83°W
Report Text: KHGR 280953Z AUTO 27007KT 10SM BKN048 00/M06 A3019 RMK AO2 SLP241 T00001061 $
Loading
Personal Weather Stations






























Interactive Weather Map New forecast layout! Learn more

10-Day Weather Forecast

Advertisements
Track Severe Weather on mobile